createdAt,value
2019-03-19T00:00:52.838Z,13.90
2019-03-19T00:05:54.876Z,17.57
2019-03-19T00:10:57.317Z,12.93
2019-03-19T00:15:59.682Z,10.73
2019-03-19T00:21:01.669Z,15.07
2019-03-19T00:26:03.692Z,13.20
2019-03-19T00:31:05.608Z,16.50
2019-03-19T00:36:07.757Z,11.20
2019-03-19T00:41:10.960Z,12.90
2019-03-19T00:46:16.765Z,18.23
2019-03-19T00:51:18.716Z,13.37
2019-03-19T00:56:20.956Z,20.63
2019-03-19T01:01:23.591Z,11.57
2019-03-19T01:06:25.770Z,14.27
2019-03-19T01:11:27.969Z,22.03
2019-03-19T01:16:30.462Z,15.60
2019-03-19T01:21:32.488Z,18.20
2019-03-19T01:26:34.467Z,14.80
2019-03-19T01:31:36.441Z,16.63
2019-03-19T01:36:38.443Z,21.60
2019-03-19T01:41:41.152Z,13.77
2019-03-19T01:46:44.096Z,17.00
2019-03-19T01:51:46.036Z,14.60
2019-03-19T01:56:47.977Z,16.23
2019-03-19T02:01:49.967Z,19.07
2019-03-19T02:06:52.321Z,17.43
2019-03-19T02:11:54.600Z,16.03
2019-03-19T02:16:56.927Z,10.60
2019-03-19T02:21:59.477Z,12.50
2019-03-19T02:27:01.765Z,17.03
2019-03-19T02:32:03.777Z,16.93
2019-03-19T02:37:06.050Z,16.50
2019-03-19T02:42:08.292Z,20.13
2019-03-19T02:47:10.720Z,22.33
2019-03-19T02:52:12.921Z,15.17
2019-03-19T02:57:15.192Z,15.83
2019-03-19T03:02:17.750Z,12.63
2019-03-19T03:07:20.044Z,15.00
2019-03-19T03:12:21.999Z,12.67
2019-03-19T03:17:24.022Z,16.60
2019-03-19T03:22:25.991Z,15.07
2019-03-19T03:27:27.969Z,22.37
2019-03-19T03:32:30.083Z,14.27
2019-03-19T03:37:32.966Z,16.03
2019-03-19T03:42:35.121Z,17.10
2019-03-19T03:47:37.422Z,12.60
2019-03-19T03:52:39.962Z,17.17
2019-03-19T03:57:42.349Z,17.63
2019-03-19T04:02:45.011Z,15.77
2019-03-19T04:07:47.903Z,16.03
2019-03-19T04:12:49.848Z,12.67
2019-03-19T04:17:54.452Z,14.73
2019-03-19T04:22:56.625Z,17.70
2019-03-19T04:27:59.982Z,15.40
2019-03-19T04:33:04.788Z,15.63
2019-03-19T04:38:07.638Z,15.63
2019-03-19T04:43:09.724Z,13.53
2019-03-19T04:48:14.041Z,17.43
2019-03-19T04:53:16.765Z,10.97
2019-03-19T04:58:18.643Z,11.70
2019-03-19T05:03:21.249Z,18.20
2019-03-19T05:08:24.189Z,12.17
2019-03-19T05:13:26.269Z,17.67
2019-03-19T05:18:28.177Z,22.23
2019-03-19T05:23:30.197Z,14.60
2019-03-19T05:28:32.193Z,13.70
2019-03-19T05:33:34.116Z,13.30
2019-03-19T05:38:36.077Z,14.27
2019-03-19T05:43:38.041Z,15.10
2019-03-19T05:48:40.493Z,21.77
2019-03-19T05:53:42.512Z,24.03
2019-03-19T05:58:44.794Z,17.07
2019-03-19T06:03:46.785Z,14.97
2019-03-19T06:08:48.789Z,13.47
2019-03-19T06:13:51.150Z,16.47
2019-03-19T06:18:54.311Z,16.53
2019-03-19T06:23:57.418Z,13.97
2019-03-19T06:29:00.007Z,12.93
2019-03-19T06:34:01.916Z,11.40
2019-03-19T06:39:06.895Z,10.87
2019-03-19T06:44:09.250Z,18.33
2019-03-19T06:49:20.619Z,16.50
2019-03-19T06:54:23.006Z,12.77
2019-03-19T06:59:48.072Z,15.83
2019-03-19T07:04:50.417Z,11.60
2019-03-19T07:09:52.694Z,14.30
2019-03-19T07:14:54.854Z,15.67
2019-03-19T07:19:57.612Z,8.67
2019-03-19T07:25:00.448Z,16.63
2019-03-19T07:30:04.334Z,21.33
2019-03-19T07:35:06.295Z,12.83
2019-03-19T07:40:12.903Z,15.13
2019-03-19T07:45:15.106Z,15.70
2019-03-19T07:50:17.461Z,12.00
2019-03-19T07:55:20.134Z,13.20
2019-03-19T08:00:22.336Z,16.17
2019-03-19T08:05:32.962Z,13.43
2019-03-19T08:10:29.859Z,15.67
2019-03-19T08:15:32.177Z,17.83
2019-03-19T08:20:34.289Z,19.87
2019-03-19T08:25:36.343Z,13.23
2019-03-19T08:30:38.486Z,21.20
2019-03-19T08:35:40.511Z,15.53
2019-03-19T08:41:03.677Z,12.67
2019-03-19T08:46:06.687Z,11.97
2019-03-19T08:51:10.838Z,13.50
2019-03-19T08:56:13.797Z,15.63
2019-03-19T09:01:16.393Z,15.87
2019-03-19T09:06:19.504Z,19.63
2019-03-19T09:11:21.993Z,19.47
2019-03-19T09:16:26.840Z,15.00
2019-03-19T09:21:30.672Z,9.77
2019-03-19T09:26:32.883Z,12.77
2019-03-19T09:31:35.714Z,12.47
2019-03-19T09:36:38.009Z,8.07
2019-03-19T09:41:40.285Z,9.77
2019-03-19T09:46:42.381Z,23.70
2019-03-19T09:51:44.668Z,10.83
2019-03-19T09:56:46.871Z,11.63
2019-03-19T10:01:49.344Z,8.87
2019-03-19T10:06:51.528Z,9.33
2019-03-19T10:11:53.856Z,11.47
2019-03-19T10:16:57.487Z,7.62
2019-03-19T10:21:59.386Z,9.07
2019-03-19T10:27:01.364Z,9.33
2019-03-19T10:32:03.485Z,8.10
2019-03-19T10:37:05.374Z,9.33
2019-03-19T10:42:07.348Z,7.80
2019-03-19T10:47:09.356Z,5.93
2019-03-19T10:52:12.645Z,8.20
2019-03-19T10:57:15.621Z,8.37
2019-03-19T11:02:17.595Z,8.30
2019-03-19T11:07:21.212Z,9.13
2019-03-19T11:12:23.097Z,5.57
2019-03-19T11:17:25.068Z,9.93
2019-03-19T11:22:27.184Z,7.80
2019-03-19T11:27:30.206Z,7.87
2019-03-19T11:32:32.312Z,6.43
2019-03-19T11:37:34.569Z,5.27
2019-03-19T11:42:36.943Z,7.47
2019-03-19T11:47:38.897Z,8.63
2019-03-19T11:52:40.797Z,6.47
2019-03-19T11:57:43.377Z,7.77
2019-03-19T12:02:45.276Z,8.03
2019-03-19T12:07:47.961Z,9.37
2019-03-19T12:12:50.373Z,8.83
2019-03-19T12:17:53.056Z,6.60
2019-03-19T12:22:55.261Z,5.40
2019-03-19T12:27:57.229Z,6.90
2019-03-19T12:32:59.468Z,7.90
2019-03-19T12:38:01.381Z,6.40
2019-03-19T12:43:03.846Z,5.90
2019-03-19T12:48:06.260Z,12.60
2019-03-19T12:53:09.368Z,5.33
2019-03-19T12:58:12.141Z,14.27
2019-03-19T13:03:14.220Z,9.10
2019-03-19T13:08:16.726Z,5.83
2019-03-19T13:13:19.512Z,7.27
2019-03-19T13:18:21.937Z,9.07
2019-03-19T13:23:26.225Z,5.40
2019-03-19T13:28:28.307Z,11.13
2019-03-19T13:33:30.715Z,8.60
2019-03-19T13:38:32.575Z,6.87
2019-03-19T13:43:34.641Z,8.73
2019-03-19T13:48:37.741Z,12.07
2019-03-19T13:53:39.755Z,8.43
2019-03-19T13:58:41.750Z,10.57
2019-03-19T14:03:43.996Z,6.27
2019-03-19T14:08:46.028Z,8.87
2019-03-19T14:13:48.144Z,7.83
2019-03-19T14:18:50.410Z,9.50
2019-03-19T14:23:52.769Z,6.77
2019-03-19T14:28:54.812Z,7.27
2019-03-19T14:33:57.139Z,7.00
2019-03-19T14:38:59.443Z,8.50
2019-03-19T14:44:02.225Z,9.57
2019-03-19T14:49:04.940Z,6.27
2019-03-19T14:54:07.584Z,8.67
2019-03-19T14:59:09.463Z,7.90
2019-03-19T15:04:14.735Z,7.03
2019-03-19T15:09:16.746Z,10.50
2019-03-19T15:14:19.057Z,9.10
2019-03-19T15:19:22.038Z,8.07
2019-03-19T15:24:24.785Z,10.77
2019-03-19T15:29:27.437Z,8.37
2019-03-19T15:34:29.364Z,6.83
2019-03-19T15:39:31.805Z,11.30
2019-03-19T15:44:34.472Z,10.83
2019-03-19T15:49:38.449Z,8.63
2019-03-19T15:54:40.842Z,8.87
2019-03-19T15:59:43.106Z,10.90
2019-03-19T16:04:45.764Z,9.17
2019-03-19T16:09:48.081Z,7.77
2019-03-19T16:14:53.634Z,9.33
2019-03-19T16:19:56.626Z,6.03
2019-03-19T16:24:58.805Z,7.53
2019-03-19T16:30:00.892Z,7.83
2019-03-19T16:35:03.432Z,12.63
2019-03-19T16:40:08.040Z,10.50
2019-03-19T16:45:10.279Z,9.27
2019-03-19T16:50:13.165Z,9.37
2019-03-19T16:55:15.209Z,6.83
2019-03-19T17:00:17.463Z,8.03
2019-03-19T17:05:20.263Z,9.87
2019-03-19T17:10:22.961Z,12.50
2019-03-19T17:15:24.969Z,5.47
2019-03-19T17:20:27.214Z,10.93
2019-03-19T17:25:29.580Z,11.80
2019-03-19T17:30:31.947Z,15.10
2019-03-19T17:35:34.021Z,9.90
2019-03-19T17:40:41.207Z,13.13
2019-03-19T17:45:40.610Z,9.77
2019-03-19T17:50:42.807Z,7.97
2019-03-19T17:55:45.076Z,7.60
2019-03-19T18:00:48.396Z,7.57
2019-03-19T18:05:50.466Z,9.23
2019-03-19T18:10:53.337Z,10.73
2019-03-19T18:15:55.584Z,11.80
2019-03-19T18:20:57.840Z,9.40
2019-03-19T18:25:59.805Z,8.17
2019-03-19T18:31:01.933Z,6.53
2019-03-19T18:36:04.342Z,7.93
2019-03-19T18:41:07.093Z,12.93
2019-03-19T18:46:09.152Z,14.37
2019-03-19T18:51:11.902Z,12.20
2019-03-19T18:56:13.861Z,10.03
2019-03-19T19:01:18.318Z,12.13
2019-03-19T19:06:20.975Z,7.17
2019-03-19T19:11:42.551Z,12.27
2019-03-19T19:16:45.995Z,18.17
2019-03-19T19:21:48.716Z,14.17
2019-03-19T19:26:51.004Z,14.43
2019-03-19T19:31:52.984Z,15.27
2019-03-19T19:36:56.101Z,13.70
2019-03-19T19:41:58.700Z,11.20
2019-03-19T19:47:00.884Z,16.53
2019-03-19T19:52:03.164Z,10.97
2019-03-19T19:57:05.428Z,14.20
2019-03-19T20:02:07.350Z,12.00
2019-03-19T20:07:09.582Z,12.50
2019-03-19T20:12:12.146Z,10.53
2019-03-19T20:17:14.020Z,11.03
2019-03-19T20:22:16.660Z,9.57
2019-03-19T20:27:18.603Z,12.80
2019-03-19T20:32:20.625Z,9.80
2019-03-19T20:37:23.009Z,13.67
2019-03-19T20:42:24.867Z,13.50
2019-03-19T20:47:26.816Z,12.77
2019-03-19T20:52:28.688Z,9.53
2019-03-19T20:57:30.944Z,12.40
2019-03-19T21:02:32.929Z,9.57
2019-03-19T21:07:35.916Z,9.93
2019-03-19T21:12:37.810Z,11.23
2019-03-19T21:17:39.912Z,18.87
2019-03-19T21:22:42.108Z,10.23
2019-03-19T21:27:44.200Z,11.63
2019-03-19T21:32:46.269Z,18.07
2019-03-19T21:37:48.630Z,15.23
2019-03-19T21:42:51.320Z,15.33
2019-03-19T21:47:53.603Z,15.30
2019-03-19T21:52:55.590Z,14.07
2019-03-19T21:57:58.072Z,14.57
2019-03-19T22:03:00.465Z,19.47
2019-03-19T22:08:02.571Z,15.27
2019-03-19T22:13:05.486Z,14.43
2019-03-19T22:18:07.877Z,16.37
2019-03-19T22:23:11.047Z,17.80
2019-03-19T22:28:13.202Z,16.27
2019-03-19T22:33:15.967Z,14.97
2019-03-19T22:38:17.988Z,12.83
2019-03-19T22:43:20.205Z,16.30
2019-03-19T22:48:22.457Z,13.93
2019-03-19T22:53:24.933Z,13.93
2019-03-19T22:58:27.441Z,15.10
2019-03-19T23:03:30.154Z,18.10
2019-03-19T23:08:32.407Z,15.50
2019-03-19T23:13:34.743Z,17.53
2019-03-19T23:18:36.892Z,14.37
2019-03-19T23:23:38.793Z,14.20
2019-03-19T23:28:40.791Z,16.57
2019-03-19T23:33:43.875Z,15.17
2019-03-19T23:38:45.828Z,23.73
2019-03-19T23:43:47.777Z,15.20
2019-03-19T23:48:49.583Z,17.80
2019-03-19T23:53:51.589Z,20.03
2019-03-19T23:58:53.813Z,19.30
